createdAt,value
2022-10-20T00:00:58.531Z,24.95
2022-10-20T00:03:26.716Z,25.17
2022-10-20T00:05:54.944Z,28.13
2022-10-20T00:08:23.977Z,25.58
2022-10-20T00:10:55.328Z,27.58
2022-10-20T00:13:23.157Z,31.23
2022-10-20T00:15:51.380Z,25.00
2022-10-20T00:18:19.192Z,26.42
2022-10-20T00:20:46.902Z,34.17
2022-10-20T00:23:14.688Z,29.10
2022-10-20T00:25:43.821Z,30.08
2022-10-20T00:28:11.600Z,31.60
2022-10-20T00:30:39.609Z,30.65
2022-10-20T00:33:07.272Z,33.20
2022-10-20T00:35:38.280Z,36.22
2022-10-20T00:38:06.276Z,33.42
2022-10-20T00:40:34.021Z,35.70
2022-10-20T00:43:03.014Z,36.83
2022-10-20T00:45:30.812Z,34.63
2022-10-20T00:48:00.948Z,41.97
2022-10-20T00:50:32.149Z,40.33
2022-10-20T00:53:00.921Z,43.22
2022-10-20T00:55:31.259Z,43.85
2022-10-20T00:58:00.035Z,42.70
2022-10-20T01:00:29.534Z,38.15
2022-10-20T01:02:59.544Z,39.38
2022-10-20T01:05:27.248Z,41.75
2022-10-20T01:07:55.273Z,41.50
2022-10-20T01:10:24.640Z,43.50
2022-10-20T01:12:55.463Z,42.92
2022-10-20T01:15:31.834Z,42.78
2022-10-20T01:18:05.951Z,48.30
2022-10-20T01:20:55.879Z,46.88
2022-10-20T01:23:51.300Z,40.10
2022-10-20T01:26:35.034Z,40.88
2022-10-20T01:29:07.089Z,56.55
2022-10-20T01:31:41.643Z,46.85
2022-10-20T01:34:13.093Z,44.40
2022-10-20T01:36:44.952Z,45.35
2022-10-20T01:39:17.687Z,38.20
2022-10-20T01:41:50.755Z,44.53
2022-10-20T01:44:20.816Z,47.05
2022-10-20T01:46:49.309Z,42.92
2022-10-20T01:49:17.527Z,40.03
2022-10-20T01:51:45.176Z,44.00
2022-10-20T01:54:22.799Z,39.40
2022-10-20T01:57:05.098Z,32.72
2022-10-20T01:59:43.989Z,34.17
2022-10-20T02:02:23.654Z,39.50
2022-10-20T02:05:02.628Z,33.80
2022-10-20T02:07:31.484Z,38.08
2022-10-20T02:10:04.648Z,41.15
2022-10-20T02:12:36.437Z,34.90
2022-10-20T02:15:07.725Z,35.95
2022-10-20T02:17:37.020Z,36.28
2022-10-20T02:20:07.091Z,36.53
2022-10-20T02:22:35.333Z,40.15
2022-10-20T02:25:03.181Z,35.35
2022-10-20T02:27:34.115Z,38.55
2022-10-20T02:30:05.391Z,39.45
2022-10-20T02:32:35.548Z,40.50
2022-10-20T02:35:06.838Z,40.22
2022-10-20T02:37:35.111Z,41.43
2022-10-20T02:40:03.281Z,34.20
2022-10-20T02:42:30.959Z,41.92
2022-10-20T02:44:58.595Z,37.95
2022-10-20T02:47:26.386Z,39.42
2022-10-20T02:49:55.398Z,41.15
2022-10-20T02:52:23.188Z,37.60
2022-10-20T02:54:50.894Z,36.83
2022-10-20T02:57:18.588Z,36.17
2022-10-20T02:59:46.301Z,34.95
2022-10-20T03:02:14.024Z,35.28
2022-10-20T03:04:41.841Z,33.28
2022-10-20T03:07:10.976Z,33.88
2022-10-20T03:09:38.670Z,35.08
2022-10-20T03:12:07.108Z,34.42
2022-10-20T03:14:34.760Z,32.83
2022-10-20T03:17:02.415Z,35.25
2022-10-20T03:19:30.144Z,32.10
2022-10-20T03:21:57.768Z,29.52
2022-10-20T03:24:26.857Z,32.00
2022-10-20T03:26:54.497Z,32.65
2022-10-20T03:29:22.164Z,33.72
2022-10-20T03:34:22.729Z,30.48
2022-10-20T03:36:51.329Z,31.70
2022-10-20T03:39:19.076Z,32.30
2022-10-20T03:41:48.134Z,36.38
2022-10-20T03:44:15.854Z,37.42
2022-10-20T03:46:43.533Z,32.80
2022-10-20T03:49:11.246Z,30.85
2022-10-20T03:51:39.037Z,30.10
2022-10-20T03:54:06.817Z,31.40
2022-10-20T03:56:34.449Z,34.10
2022-10-20T04:01:36.244Z,27.27
2022-10-20T04:04:03.996Z,28.02
2022-10-20T04:06:32.740Z,30.92
2022-10-20T04:09:00.505Z,34.53
2022-10-20T04:11:28.242Z,27.42
2022-10-20T04:13:55.902Z,28.77
2022-10-20T04:16:25.167Z,30.73
2022-10-20T04:18:53.101Z,27.08
2022-10-20T04:21:20.852Z,31.50
2022-10-20T04:23:48.589Z,29.52
2022-10-20T04:26:17.056Z,30.20
2022-10-20T04:28:44.715Z,26.10
2022-10-20T04:31:12.336Z,24.65
2022-10-20T04:33:41.474Z,26.35
2022-10-20T04:36:11.365Z,30.13
2022-10-20T04:38:39.102Z,25.25
2022-10-20T04:41:07.044Z,25.33
2022-10-20T04:43:35.581Z,27.83
2022-10-20T04:46:07.041Z,26.17
2022-10-20T04:48:36.417Z,25.58
2022-10-20T04:51:07.720Z,23.10
2022-10-20T04:53:36.078Z,28.77
2022-10-20T04:56:03.977Z,27.92
2022-10-20T04:58:31.748Z,23.92
2022-10-20T05:01:02.465Z,25.98
2022-10-20T05:03:30.172Z,27.23
2022-10-20T05:06:10.413Z,27.08
2022-10-20T05:08:38.493Z,23.52
2022-10-20T05:11:06.539Z,29.23
2022-10-20T05:13:34.464Z,32.72
2022-10-20T05:16:02.258Z,31.38
2022-10-20T05:18:30.148Z,27.08
2022-10-20T05:21:08.205Z,29.65
2022-10-20T05:23:38.657Z,27.60
2022-10-20T05:26:07.920Z,26.70
2022-10-20T05:28:35.807Z,27.38
2022-10-20T05:31:03.848Z,27.88
2022-10-20T05:33:31.562Z,30.98
2022-10-20T05:35:59.274Z,32.55
2022-10-20T05:38:26.932Z,29.73
2022-10-20T05:40:55.968Z,26.10
2022-10-20T05:43:23.603Z,30.45
2022-10-20T05:45:54.979Z,28.75
2022-10-20T05:48:22.596Z,30.57
2022-10-20T05:50:50.279Z,26.95
2022-10-20T05:53:17.929Z,27.02
2022-10-20T05:55:45.584Z,27.00
2022-10-20T05:58:16.860Z,30.35
2022-10-20T06:00:52.743Z,32.33
2022-10-20T06:03:23.689Z,30.65
2022-10-20T06:05:58.361Z,29.08
2022-10-20T06:08:26.763Z,31.00
2022-10-20T06:10:54.440Z,28.98
2022-10-20T06:13:23.484Z,28.42
2022-10-20T06:15:51.179Z,30.65
2022-10-20T06:18:18.849Z,26.67
2022-10-20T06:20:46.533Z,26.52
2022-10-20T06:23:14.254Z,25.58
2022-10-20T06:25:41.897Z,28.58
2022-10-20T06:28:09.522Z,30.15
2022-10-20T06:30:38.549Z,27.45
2022-10-20T06:33:06.192Z,27.60
2022-10-20T06:35:33.910Z,25.88
2022-10-20T06:38:01.558Z,25.90
2022-10-20T06:40:29.223Z,38.22
2022-10-20T06:42:56.947Z,30.42
2022-10-20T06:45:24.614Z,30.63
2022-10-20T06:47:53.630Z,28.33
2022-10-20T06:50:21.290Z,26.23
2022-10-20T06:52:49.286Z,27.42
2022-10-20T06:55:17.216Z,25.58
2022-10-20T06:57:44.857Z,27.23
2022-10-20T07:00:13.253Z,24.25
2022-10-20T07:02:40.908Z,24.83
2022-10-20T07:05:10.334Z,24.35
2022-10-20T07:07:38.033Z,21.67
2022-10-20T07:10:06.141Z,24.75
2022-10-20T07:12:34.009Z,22.73
2022-10-20T07:15:01.816Z,21.13
2022-10-20T07:17:29.517Z,22.27
2022-10-20T07:19:57.145Z,20.25
2022-10-20T07:22:26.241Z,23.83
2022-10-20T07:24:54.216Z,22.38
2022-10-20T07:27:21.840Z,24.80
2022-10-20T07:29:49.505Z,30.08
2022-10-20T07:32:17.149Z,26.45
2022-10-20T07:34:44.961Z,26.00
2022-10-20T07:37:12.649Z,24.73
2022-10-20T07:39:41.868Z,22.50
2022-10-20T07:42:09.500Z,23.15
2022-10-20T07:44:37.173Z,23.70
2022-10-20T07:47:04.830Z,21.98
2022-10-20T07:49:43.881Z,24.75
2022-10-20T07:52:12.577Z,20.13
2022-10-20T07:54:41.582Z,27.35
2022-10-20T07:57:09.213Z,21.10
2022-10-20T07:59:36.871Z,23.30
2022-10-20T08:02:04.932Z,22.27
2022-10-20T08:04:32.677Z,22.17
2022-10-20T08:07:00.750Z,23.23
2022-10-20T08:09:28.600Z,22.30
2022-10-20T08:11:57.793Z,23.92
2022-10-20T08:14:27.653Z,21.67
2022-10-20T08:17:06.577Z,21.95
2022-10-20T08:19:56.784Z,20.45
2022-10-20T08:22:24.474Z,22.67
2022-10-20T08:24:52.311Z,20.52
2022-10-20T08:27:21.446Z,20.77
2022-10-20T08:29:59.893Z,24.52
2022-10-20T08:32:34.329Z,20.40
2022-10-20T08:35:02.281Z,20.95
2022-10-20T08:37:30.925Z,20.35
2022-10-20T08:39:58.661Z,20.13
2022-10-20T08:42:27.829Z,20.02
2022-10-20T08:44:56.930Z,21.88
2022-10-20T08:47:30.655Z,19.77
2022-10-20T08:50:01.407Z,19.98
2022-10-20T08:52:29.322Z,21.10
2022-10-20T08:54:58.652Z,23.33
2022-10-20T08:57:30.385Z,20.98
2022-10-20T09:00:09.171Z,21.27
2022-10-20T09:02:37.019Z,19.92
2022-10-20T09:05:06.274Z,19.00
2022-10-20T09:07:35.616Z,19.40
2022-10-20T09:10:07.147Z,21.67
2022-10-20T09:12:36.952Z,20.33
2022-10-20T09:15:05.107Z,19.92
2022-10-20T09:17:33.307Z,19.27
2022-10-20T09:20:01.665Z,18.35
2022-10-20T09:22:35.562Z,19.20
2022-10-20T09:25:04.196Z,21.92
2022-10-20T09:27:34.701Z,19.17
2022-10-20T09:30:17.495Z,20.38
2022-10-20T09:32:55.520Z,20.00
2022-10-20T09:35:26.384Z,20.83
2022-10-20T09:37:58.284Z,20.52
2022-10-20T09:40:27.145Z,20.60
2022-10-20T09:42:56.407Z,21.33
2022-10-20T09:45:28.594Z,22.02
2022-10-20T09:50:28.937Z,19.73
2022-10-20T09:52:57.212Z,19.48
2022-10-20T09:55:29.250Z,18.02
2022-10-20T09:57:58.361Z,20.13
2022-10-20T10:00:37.814Z,19.77
2022-10-20T10:03:11.884Z,20.52
2022-10-20T10:05:39.562Z,19.33
2022-10-20T10:08:14.932Z,19.13
2022-10-20T10:10:44.792Z,21.50
2022-10-20T10:13:25.099Z,30.25
2022-10-20T10:16:02.794Z,20.83
2022-10-20T10:18:30.878Z,20.13
2022-10-20T10:21:00.536Z,20.90
2022-10-20T10:23:29.214Z,21.15
2022-10-20T10:26:00.617Z,20.92
2022-10-20T10:28:36.024Z,19.80
2022-10-20T10:31:24.712Z,20.30
2022-10-20T10:33:55.304Z,19.17
2022-10-20T10:36:30.172Z,20.15
2022-10-20T10:38:58.554Z,19.20
2022-10-20T10:41:37.279Z,20.90
2022-10-20T10:44:10.933Z,18.52
2022-10-20T10:49:26.198Z,20.60
2022-10-20T10:52:01.083Z,19.17
2022-10-20T10:54:39.051Z,18.63
2022-10-20T10:57:14.478Z,19.52
2022-10-20T10:59:44.554Z,21.13
2022-10-20T11:02:28.108Z,19.70
2022-10-20T11:05:21.159Z,19.17
2022-10-20T11:07:57.020Z,29.00
2022-10-20T11:10:29.511Z,19.42
2022-10-20T11:13:19.224Z,20.15
2022-10-20T11:16:02.866Z,18.83
2022-10-20T11:19:00.317Z,18.48
2022-10-20T11:21:32.172Z,18.77
2022-10-20T11:24:16.888Z,17.52
2022-10-20T11:26:46.365Z,19.75
2022-10-20T11:29:18.065Z,17.08
2022-10-20T11:31:52.273Z,20.27
2022-10-20T11:34:26.645Z,17.08
2022-10-20T11:36:58.493Z,18.10
2022-10-20T11:39:29.805Z,19.27
2022-10-20T11:42:02.449Z,17.80
2022-10-20T11:44:34.393Z,18.92
2022-10-20T11:47:04.469Z,21.33
2022-10-20T11:49:34.788Z,22.70
2022-10-20T11:52:38.496Z,19.20
2022-10-20T11:55:19.984Z,17.90
2022-10-20T11:58:01.184Z,17.40
2022-10-20T12:00:41.240Z,17.47
2022-10-20T12:03:30.194Z,18.70
2022-10-20T12:06:31.591Z,18.60
2022-10-20T12:09:32.854Z,18.92
2022-10-20T12:12:03.599Z,18.45
2022-10-20T12:14:36.212Z,19.55
2022-10-20T12:17:28.724Z,19.45
2022-10-20T12:22:42.501Z,19.63
2022-10-20T12:25:21.116Z,20.58
2022-10-20T12:28:27.869Z,21.45
2022-10-20T12:30:57.459Z,22.60
2022-10-20T12:33:38.017Z,19.77
2022-10-20T12:36:25.076Z,19.30
2022-10-20T12:38:55.415Z,19.92
2022-10-20T12:41:27.716Z,20.27
2022-10-20T12:43:56.085Z,21.77
2022-10-20T12:46:27.926Z,27.85
2022-10-20T12:49:00.079Z,21.33
2022-10-20T13:06:55.038Z,21.40
2022-10-20T13:09:32.379Z,21.23
2022-10-20T13:12:37.757Z,21.52
2022-10-20T13:18:53.761Z,20.05
2022-10-20T13:26:01.750Z,20.67
2022-10-20T13:28:36.078Z,21.00
2022-10-20T13:31:18.208Z,22.20
2022-10-20T13:34:03.749Z,22.85
2022-10-20T13:36:54.890Z,28.60
2022-10-20T13:39:29.562Z,26.35
2022-10-20T13:42:05.463Z,24.65
2022-10-20T13:44:48.855Z,22.27
2022-10-20T13:47:44.046Z,25.73
2022-10-20T13:50:14.302Z,22.10
2022-10-20T13:52:44.000Z,23.33
2022-10-20T13:55:18.327Z,22.50
2022-10-20T13:57:55.291Z,22.02
2022-10-20T14:00:30.283Z,22.50
2022-10-20T14:03:01.190Z,21.08
2022-10-20T14:05:30.413Z,19.42
2022-10-20T14:08:04.676Z,20.13
2022-10-20T14:10:41.287Z,18.23
2022-10-20T14:13:10.490Z,30.58
2022-10-20T14:15:39.845Z,19.75
2022-10-20T14:19:09.090Z,18.48
2022-10-20T14:21:44.276Z,20.10
2022-10-20T14:24:15.417Z,21.88
2022-10-20T14:26:44.462Z,17.98
2022-10-20T14:29:13.749Z,19.40
2022-10-20T14:31:43.093Z,18.50
2022-10-20T14:34:20.956Z,20.40
2022-10-20T14:36:49.493Z,21.45
2022-10-20T14:39:31.354Z,18.92
2022-10-20T14:42:01.510Z,22.58
2022-10-20T14:44:31.929Z,22.00
2022-10-20T14:47:05.467Z,19.13
2022-10-20T14:49:35.299Z,18.98
2022-10-20T14:52:04.611Z,19.45
2022-10-20T15:08:29.317Z,19.05
2022-10-20T15:10:57.518Z,21.48
2022-10-20T15:13:28.282Z,19.30
2022-10-20T15:15:57.617Z,18.77
2022-10-20T15:18:47.302Z,19.52
2022-10-20T15:21:15.194Z,19.70
2022-10-20T15:23:44.560Z,19.55
2022-10-20T15:26:14.785Z,19.35
2022-10-20T15:28:46.161Z,19.80
2022-10-20T15:32:27.267Z,20.10
2022-10-20T15:34:55.260Z,24.80
2022-10-20T15:37:23.126Z,19.20
2022-10-20T15:39:54.512Z,22.45
2022-10-20T15:42:28.299Z,18.35
2022-10-20T15:44:58.833Z,22.25
2022-10-20T15:47:28.508Z,20.40
2022-10-20T15:49:58.142Z,19.05
2022-10-20T15:52:30.926Z,22.45
2022-10-20T15:57:35.584Z,22.17
2022-10-20T16:00:34.729Z,21.23
2022-10-20T16:03:24.469Z,36.72
2022-10-20T16:05:52.421Z,21.30
2022-10-20T16:11:47.227Z,19.10
2022-10-20T16:14:16.959Z,18.17
2022-10-20T16:16:54.606Z,17.80
2022-10-20T16:19:22.576Z,18.85
2022-10-20T16:21:50.500Z,18.92
2022-10-20T16:24:27.415Z,20.67
2022-10-20T16:49:33.628Z,18.25
2022-10-20T16:52:01.718Z,16.40
2022-10-20T16:54:29.944Z,18.55
2022-10-20T16:56:58.003Z,19.95
2022-10-20T16:59:25.975Z,18.50
2022-10-20T17:01:55.121Z,18.40
2022-10-20T17:04:31.198Z,17.33
2022-10-20T17:07:15.212Z,17.33
2022-10-20T17:09:48.011Z,18.95
2022-10-20T17:15:30.581Z,16.85
2022-10-20T17:20:59.322Z,40.25
2022-10-20T17:23:37.476Z,22.92
2022-10-20T17:26:12.752Z,19.63
2022-10-20T17:28:59.856Z,23.58
2022-10-20T17:31:29.878Z,20.55
2022-10-20T17:34:09.626Z,17.65
2022-10-20T17:37:55.567Z,18.70
2022-10-20T17:40:52.273Z,21.05
2022-10-20T17:43:20.680Z,18.77
2022-10-20T17:45:56.871Z,22.02
2022-10-20T17:48:24.892Z,18.30
2022-10-20T17:51:00.239Z,23.50
2022-10-20T17:53:27.988Z,52.60
2022-10-20T17:56:01.520Z,29.52
2022-10-20T17:58:29.465Z,30.90
2022-10-20T18:00:57.364Z,20.60
2022-10-20T18:03:25.180Z,25.25
2022-10-20T18:05:52.931Z,55.30
2022-10-20T18:08:20.644Z,46.20
2022-10-20T18:10:49.028Z,39.03
2022-10-20T18:13:17.993Z,26.02
2022-10-20T18:15:45.625Z,18.30
2022-10-20T18:18:13.254Z,22.63
2022-10-20T18:20:40.998Z,26.25
2022-10-20T18:23:08.646Z,26.05
2022-10-20T18:25:36.609Z,21.15
2022-10-20T18:28:04.419Z,23.63
2022-10-20T18:30:38.043Z,21.77
2022-10-20T18:33:05.757Z,24.33
2022-10-20T18:35:33.473Z,20.67
2022-10-20T18:38:01.183Z,22.55
2022-10-20T18:40:28.796Z,27.27
2022-10-20T18:42:56.495Z,24.10
2022-10-20T18:45:25.987Z,21.55
2022-10-20T18:47:55.240Z,26.75
2022-10-20T18:50:22.852Z,29.00
2022-10-20T18:52:50.596Z,26.45
2022-10-20T18:55:18.293Z,20.83
2022-10-20T18:57:45.932Z,21.67
2022-10-20T19:00:14.727Z,19.27
2022-10-20T19:02:42.417Z,19.10
2022-10-20T19:05:11.662Z,21.55
2022-10-20T19:07:39.636Z,20.52
2022-10-20T19:10:08.297Z,19.92
2022-10-20T19:12:36.334Z,21.42
2022-10-20T19:15:04.403Z,20.52
2022-10-20T19:17:33.717Z,20.13
2022-10-20T19:20:01.429Z,19.70
2022-10-20T19:22:30.486Z,18.67
2022-10-20T19:24:58.163Z,24.83
2022-10-20T19:27:27.163Z,19.27
2022-10-20T19:29:55.872Z,24.83
2022-10-20T19:32:23.519Z,19.10
2022-10-20T19:34:51.171Z,21.30
2022-10-20T19:37:18.896Z,18.83
2022-10-20T19:39:47.925Z,29.60
2022-10-20T19:42:15.581Z,24.05
2022-10-20T19:44:43.240Z,24.65
2022-10-20T19:47:10.947Z,21.13
2022-10-20T19:49:38.704Z,23.65
2022-10-20T19:52:06.830Z,26.85
2022-10-20T19:54:35.005Z,24.73
2022-10-20T19:57:04.438Z,38.10
2022-10-20T19:59:32.143Z,32.65
2022-10-20T20:01:59.831Z,24.35
2022-10-20T20:04:27.544Z,24.02
2022-10-20T20:06:59.659Z,22.45
2022-10-20T20:09:30.172Z,22.90
2022-10-20T20:11:58.304Z,20.27
2022-10-20T20:14:27.470Z,20.52
2022-10-20T20:16:55.121Z,23.35
2022-10-20T20:19:22.755Z,30.13
2022-10-20T20:21:50.463Z,22.98
2022-10-20T20:24:18.177Z,22.52
2022-10-20T20:26:46.961Z,21.15
2022-10-20T20:29:14.696Z,19.90
2022-10-20T20:31:44.784Z,31.77
2022-10-20T20:34:12.555Z,21.17
2022-10-20T20:36:40.360Z,28.60
2022-10-20T20:39:08.244Z,30.48
2022-10-20T20:41:36.035Z,22.67
2022-10-20T20:44:07.961Z,28.98
2022-10-20T20:46:36.439Z,31.20
2022-10-20T20:49:05.745Z,28.15
2022-10-20T20:51:33.839Z,19.90
2022-10-20T20:54:02.186Z,22.73
2022-10-20T20:56:29.851Z,22.10
2022-10-20T20:58:57.539Z,20.27
2022-10-20T21:01:28.149Z,19.10
2022-10-20T21:03:56.696Z,20.55
2022-10-20T21:06:33.839Z,22.40
2022-10-20T21:09:06.244Z,23.37
2022-10-20T21:11:33.954Z,19.40
2022-10-20T21:14:01.693Z,22.38
2022-10-20T21:16:30.869Z,30.60
2022-10-20T21:18:59.852Z,25.05
2022-10-20T21:21:29.984Z,31.75
2022-10-20T21:23:58.156Z,22.30
2022-10-20T21:26:26.011Z,21.35
2022-10-20T21:28:53.870Z,27.20
2022-10-20T21:31:24.975Z,20.63
2022-10-20T21:33:53.684Z,19.30
2022-10-20T21:36:22.117Z,22.92
2022-10-20T21:38:52.202Z,22.52
2022-10-20T21:41:21.457Z,25.88
2022-10-20T21:43:50.264Z,19.48
2022-10-20T21:46:19.866Z,21.42
2022-10-20T21:48:48.761Z,21.88
2022-10-20T21:51:18.449Z,23.13
2022-10-20T21:53:46.519Z,24.35
2022-10-20T21:56:16.155Z,22.85
2022-10-20T21:58:44.144Z,20.23
2022-10-20T22:01:12.749Z,20.50
2022-10-20T22:03:40.897Z,20.40
2022-10-20T22:06:09.337Z,20.85
2022-10-20T22:08:37.474Z,19.50
2022-10-20T22:11:06.092Z,18.45
2022-10-20T22:13:35.196Z,26.70
2022-10-20T22:16:02.830Z,20.75
2022-10-20T22:18:30.529Z,24.33
2022-10-20T22:20:58.180Z,27.13
2022-10-20T22:23:25.874Z,20.20
2022-10-20T22:25:54.361Z,21.35
2022-10-20T22:28:22.061Z,24.83
2022-10-20T22:30:51.175Z,22.05
2022-10-20T22:33:18.981Z,25.48
2022-10-20T22:35:46.605Z,20.98
2022-10-20T22:38:14.365Z,25.25
2022-10-20T22:40:41.967Z,27.90
2022-10-20T22:43:09.647Z,23.33
2022-10-20T22:45:38.139Z,24.90
2022-10-20T22:48:07.581Z,22.55
2022-10-20T22:50:35.217Z,26.73
2022-10-20T22:53:02.815Z,19.15
2022-10-20T22:55:30.516Z,25.88
2022-10-20T23:00:26.878Z,26.25
2022-10-20T23:02:54.516Z,20.60
2022-10-20T23:05:23.573Z,26.23
2022-10-20T23:07:51.240Z,20.33
2022-10-20T23:10:19.065Z,21.55
2022-10-20T23:12:46.684Z,21.30
2022-10-20T23:15:14.424Z,21.08
2022-10-20T23:17:42.085Z,25.67
2022-10-20T23:20:10.845Z,19.42
2022-10-20T23:22:39.844Z,19.02
2022-10-20T23:25:08.196Z,21.05
2022-10-20T23:27:36.721Z,20.73
2022-10-20T23:30:05.321Z,22.42
2022-10-20T23:32:33.767Z,25.00
2022-10-20T23:35:01.418Z,22.58
2022-10-20T23:37:29.097Z,25.63
2022-10-20T23:39:58.125Z,23.65
2022-10-20T23:42:25.769Z,21.58
2022-10-20T23:44:53.415Z,21.95
2022-10-20T23:47:21.095Z,23.85
2022-10-20T23:49:48.715Z,24.88
2022-10-20T23:52:16.385Z,24.77
2022-10-20T23:54:43.956Z,22.90
2022-10-20T23:57:13.021Z,24.85
2022-10-20T23:59:40.642Z,24.50
